createdAt,value
2022-10-30T00:01:56.999Z,99418.36
2022-10-30T00:05:01.657Z,99426.32
2022-10-30T00:08:08.256Z,99428.71
2022-10-30T00:11:15.506Z,99430.86
2022-10-30T00:14:21.597Z,99430.64
2022-10-30T00:17:27.783Z,99425.77
2022-10-30T00:20:33.846Z,99418.87
2022-10-30T00:23:41.059Z,99416.48
2022-10-30T00:26:47.115Z,99416.98
2022-10-30T00:29:53.237Z,99413.61
2022-10-30T00:32:58.088Z,99418.77
2022-10-30T00:36:04.425Z,99427.67
2022-10-30T00:39:09.011Z,99427.80
2022-10-30T00:42:18.051Z,99424.48
2022-10-30T00:45:24.248Z,99424.07
2022-10-30T00:48:29.583Z,99425.55
2022-10-30T00:51:36.283Z,99429.59
2022-10-30T00:54:42.497Z,99422.92
2022-10-30T00:57:47.550Z,99419.77
2022-10-30T01:00:56.360Z,99420.03
2022-10-30T01:04:04.979Z,99422.07
2022-10-30T01:07:16.779Z,99426.79
2022-10-30T01:10:23.656Z,99431.36
2022-10-30T01:13:30.873Z,99433.91
2022-10-30T01:17:06.407Z,99435.39
2022-10-30T01:20:19.421Z,99429.58
2022-10-30T01:23:38.983Z,99427.84
2022-10-30T01:26:54.082Z,99428.79
2022-10-30T01:30:12.432Z,99420.11
2022-10-30T01:33:31.698Z,99409.86
2022-10-30T01:36:44.538Z,99397.75
2022-10-30T01:39:50.725Z,99390.52
2022-10-30T01:42:56.130Z,99398.63
2022-10-30T01:46:25.030Z,99412.34
2022-10-30T01:49:52.277Z,99422.31
2022-10-30T01:53:03.988Z,99423.15
2022-10-30T01:56:22.017Z,99405.41
2022-10-30T01:59:34.530Z,99394.95
2022-10-30T02:02:40.993Z,99389.14
2022-10-30T02:05:49.972Z,99394.56
2022-10-30T02:08:58.193Z,99393.38
2022-10-30T02:12:05.739Z,99391.35
2022-10-30T02:15:13.764Z,99396.11
2022-10-30T02:18:19.932Z,99396.99
2022-10-30T02:21:24.440Z,99398.71
2022-10-30T02:24:31.423Z,99395.95
2022-10-30T02:27:37.567Z,99389.17
2022-10-30T02:30:44.240Z,99390.35
2022-10-30T02:33:50.481Z,99388.48
2022-10-30T02:36:54.945Z,99383.50
2022-10-30T02:40:01.285Z,99385.36
2022-10-30T02:43:07.482Z,99376.91
2022-10-30T02:46:13.622Z,99367.98
2022-10-30T02:49:19.769Z,99368.86
2022-10-30T02:52:25.788Z,99373.89
2022-10-30T02:55:31.932Z,99385.62
2022-10-30T02:58:38.474Z,99389.08
2022-10-30T03:01:44.988Z,99400.80
2022-10-30T03:04:51.179Z,99405.04
2022-10-30T03:07:57.490Z,99404.23
2022-10-30T03:11:05.363Z,99404.15
2022-10-30T03:14:11.700Z,99404.52
2022-10-30T03:17:17.811Z,99399.73
2022-10-30T03:20:23.949Z,99399.75
2022-10-30T03:23:30.241Z,99401.48
2022-10-30T03:26:36.230Z,99403.08
2022-10-30T03:29:42.475Z,99406.98
2022-10-30T03:32:47.045Z,99407.70
2022-10-30T03:35:53.582Z,99399.07
2022-10-30T03:38:59.710Z,99391.89
2022-10-30T03:42:05.981Z,99389.34
2022-10-30T03:45:11.492Z,99381.52
2022-10-30T03:48:18.506Z,99373.20
2022-10-30T03:51:24.523Z,99378.82
2022-10-30T03:54:31.307Z,99388.02
2022-10-30T03:57:39.457Z,99387.89
2022-10-30T04:00:45.629Z,99390.28
2022-10-30T04:03:50.195Z,99393.20
2022-10-30T04:06:56.257Z,99393.20
2022-10-30T04:10:02.440Z,99387.40
2022-10-30T04:13:07.562Z,99378.09
2022-10-30T04:16:13.902Z,99374.38
2022-10-30T04:19:18.368Z,99379.14
2022-10-30T04:22:24.924Z,99378.41
2022-10-30T04:25:31.822Z,99379.30
2022-10-30T04:28:37.930Z,99374.88
2022-10-30T04:31:44.089Z,99379.46
2022-10-30T04:34:53.472Z,99385.34
2022-10-30T04:38:00.864Z,99386.79
2022-10-30T04:41:07.107Z,99389.92
2022-10-30T04:44:11.577Z,99376.10
2022-10-30T04:47:17.894Z,99374.37
2022-10-30T04:50:24.050Z,99374.70
2022-10-30T04:53:30.218Z,99372.44
2022-10-30T04:56:36.416Z,99376.80
2022-10-30T04:59:40.961Z,99380.21
2022-10-30T05:02:47.103Z,99381.52
2022-10-30T05:06:01.160Z,99376.02
2022-10-30T05:09:07.365Z,99370.00
2022-10-30T05:12:13.893Z,99369.25
2022-10-30T05:15:20.259Z,99367.42
2022-10-30T05:18:26.467Z,99370.02
2022-10-30T05:21:32.537Z,99373.67
2022-10-30T05:24:38.718Z,99373.34
2022-10-30T05:27:43.186Z,99379.54
2022-10-30T05:30:49.452Z,99383.03
2022-10-30T05:33:54.067Z,99381.98
2022-10-30T05:37:01.518Z,99382.29
2022-10-30T05:40:09.239Z,99382.40
2022-10-30T05:43:15.482Z,99382.70
2022-10-30T05:46:21.623Z,99383.40
2022-10-30T05:49:27.754Z,99381.70
2022-10-30T05:52:33.878Z,99384.38
2022-10-30T05:55:39.980Z,99381.00
2022-10-30T05:58:46.099Z,99382.83
2022-10-30T06:01:52.179Z,99381.25
2022-10-30T06:04:58.295Z,99375.20
2022-10-30T06:08:05.250Z,99369.96
2022-10-30T06:11:11.516Z,99384.66
2022-10-30T06:14:16.144Z,99391.83
2022-10-30T06:17:22.308Z,99401.72
2022-10-30T06:20:30.117Z,99403.29
2022-10-30T06:23:36.239Z,99405.30
2022-10-30T06:26:42.852Z,99400.61
2022-10-30T06:29:49.222Z,99404.14
2022-10-30T06:32:57.619Z,99408.36
2022-10-30T06:36:03.913Z,99410.56
2022-10-30T06:39:10.138Z,99408.54
2022-10-30T06:42:14.591Z,99408.29
2022-10-30T06:45:22.803Z,99406.89
2022-10-30T06:48:28.944Z,99407.36
2022-10-30T06:51:35.945Z,99410.16
2022-10-30T06:54:42.315Z,99413.39
2022-10-30T06:57:54.622Z,99415.66
2022-10-30T07:01:02.863Z,99414.77
2022-10-30T07:04:09.103Z,99416.66
2022-10-30T07:07:15.293Z,99416.44
2022-10-30T07:10:21.890Z,99416.70
2022-10-30T07:13:28.145Z,99419.20
2022-10-30T07:16:32.633Z,99420.39
2022-10-30T07:19:38.954Z,99418.42
2022-10-30T07:22:45.049Z,99418.05
2022-10-30T07:25:51.075Z,99417.09
2022-10-30T07:28:57.239Z,99419.16
2022-10-30T07:32:03.764Z,99417.30
2022-10-30T07:35:12.539Z,99411.06
2022-10-30T07:38:18.907Z,99401.20
2022-10-30T07:41:23.514Z,99401.12
2022-10-30T07:44:29.640Z,99403.21
2022-10-30T07:47:40.106Z,99400.11
2022-10-30T07:50:46.242Z,99404.75
2022-10-30T07:53:52.273Z,99408.45
2022-10-30T07:56:59.086Z,99413.02
2022-10-30T08:00:05.582Z,99411.91
2022-10-30T08:03:12.974Z,99419.05
2022-10-30T08:06:22.918Z,99419.48
2022-10-30T08:09:32.446Z,99408.40
2022-10-30T08:12:40.684Z,99400.31
2022-10-30T08:15:46.812Z,99389.95
2022-10-30T08:18:53.337Z,99396.64
2022-10-30T08:22:00.261Z,99397.48
2022-10-30T08:25:07.290Z,99396.54
2022-10-30T08:28:14.578Z,99398.98
2022-10-30T08:31:20.725Z,99397.23
2022-10-30T08:34:26.773Z,99394.08
2022-10-30T08:37:32.837Z,99395.27
2022-10-30T08:40:39.094Z,99393.23
2022-10-30T08:43:43.575Z,99390.27
2022-10-30T08:46:49.674Z,99387.93
2022-10-30T08:49:55.639Z,99380.05
2022-10-30T08:53:05.689Z,99379.22
2022-10-30T08:56:11.890Z,99378.17
2022-10-30T08:59:17.271Z,99376.63
2022-10-30T09:02:26.717Z,99376.98
2022-10-30T09:05:33.045Z,99378.17
2022-10-30T09:08:39.237Z,99375.25
2022-10-30T09:11:43.740Z,99380.77
2022-10-30T09:14:49.864Z,99377.69
2022-10-30T09:17:58.823Z,99368.66
2022-10-30T09:21:05.612Z,99368.27
2022-10-30T09:24:12.043Z,99365.10
2022-10-30T09:27:18.059Z,99362.27
2022-10-30T09:30:24.405Z,99354.08
2022-10-30T09:33:30.536Z,99347.09
2022-10-30T09:36:35.525Z,99345.15
2022-10-30T09:39:41.715Z,99348.68
2022-10-30T09:42:47.329Z,99347.80
2022-10-30T09:46:21.194Z,99349.85
2022-10-30T09:49:45.135Z,99342.51
2022-10-30T09:53:03.577Z,99342.52
2022-10-30T09:56:19.438Z,99339.22
2022-10-30T09:59:31.592Z,99336.39
2022-10-30T10:02:39.863Z,99338.00
2022-10-30T10:05:49.924Z,99335.63
2022-10-30T10:08:59.774Z,99330.40
2022-10-30T10:12:09.334Z,99320.02
2022-10-30T10:15:30.945Z,99322.39
2022-10-30T10:18:44.585Z,99320.66
2022-10-30T10:21:56.711Z,99318.32
2022-10-30T10:25:04.090Z,99316.73
2022-10-30T10:28:23.643Z,99313.67
2022-10-30T10:31:41.700Z,99312.80
2022-10-30T10:34:58.925Z,99309.90
2022-10-30T10:38:11.995Z,99305.80
2022-10-30T10:41:27.431Z,99299.65
2022-10-30T10:44:48.917Z,99297.89
2022-10-30T10:51:21.762Z,99298.80
2022-10-30T10:54:32.045Z,99300.17
2022-10-30T10:57:41.818Z,99300.25
2022-10-30T11:00:49.091Z,99306.89
2022-10-30T11:04:01.566Z,99305.09
2022-10-30T11:07:22.724Z,99310.04
2022-10-30T11:10:28.709Z,99309.98
2022-10-30T11:13:35.935Z,99306.81
2022-10-30T11:16:56.130Z,99305.23
2022-10-30T11:20:13.486Z,99300.55
2022-10-30T11:23:38.843Z,99299.04
2022-10-30T11:26:45.497Z,99299.58
2022-10-30T11:29:54.830Z,99297.34
2022-10-30T11:33:22.052Z,99298.95
2022-10-30T11:36:28.539Z,99296.48
2022-10-30T11:39:35.974Z,99297.74
2022-10-30T11:42:44.025Z,99298.17
2022-10-30T11:45:51.615Z,99301.62
2022-10-30T11:48:57.668Z,99300.93
2022-10-30T11:52:04.762Z,99310.26
2022-10-30T11:55:17.821Z,99311.10
2022-10-30T11:58:30.935Z,99316.93
2022-10-30T12:01:39.479Z,99317.90
2022-10-30T12:04:45.615Z,99318.38
2022-10-30T12:07:52.169Z,99314.04
2022-10-30T12:11:01.653Z,99312.06
2022-10-30T12:14:08.387Z,99306.99
2022-10-30T12:17:17.956Z,99305.44
2022-10-30T12:20:24.533Z,99305.11
2022-10-30T12:23:32.513Z,99304.16
2022-10-30T12:26:39.892Z,99301.38
2022-10-30T12:30:07.893Z,99299.68
2022-10-30T12:33:22.358Z,99289.59
2022-10-30T12:36:33.683Z,99288.02
2022-10-30T12:39:51.269Z,99290.95
2022-10-30T12:43:03.051Z,99283.64
2022-10-30T12:46:23.466Z,99279.89
2022-10-30T12:49:36.152Z,99279.91
2022-10-30T12:52:47.399Z,99274.48
2022-10-30T12:56:01.200Z,99284.86
2022-10-30T12:59:23.231Z,99288.36
2022-10-30T13:02:42.130Z,99286.68
2022-10-30T13:05:53.069Z,99288.75
2022-10-30T13:09:09.481Z,99283.02
2022-10-30T13:12:19.732Z,99282.73
2022-10-30T13:15:31.039Z,99279.59
2022-10-30T13:18:37.801Z,99273.73
2022-10-30T13:21:50.428Z,99274.11
2022-10-30T13:25:04.218Z,99275.61
2022-10-30T13:28:21.577Z,99273.78
2022-10-30T13:31:33.681Z,99265.67
2022-10-30T13:34:51.931Z,99262.58
2022-10-30T13:38:05.575Z,99262.64
2022-10-30T13:41:24.430Z,99258.52
2022-10-30T13:44:41.653Z,99255.05
2022-10-30T13:47:57.505Z,99249.88
2022-10-30T13:51:23.388Z,99256.64
2022-10-30T13:54:34.075Z,99254.77
2022-10-30T13:57:45.149Z,99260.34
2022-10-30T14:01:02.031Z,99265.39
2022-10-30T14:04:15.473Z,99269.16
2022-10-30T14:07:31.186Z,99268.91
2022-10-30T14:10:47.590Z,99270.21
2022-10-30T14:13:57.712Z,99272.72
2022-10-30T14:17:17.947Z,99273.21
2022-10-30T14:20:29.822Z,99271.20
2022-10-30T14:23:38.914Z,99274.27
2022-10-30T14:26:52.762Z,99276.86
2022-10-30T14:30:00.601Z,99276.28
2022-10-30T14:33:06.859Z,99274.02
2022-10-30T14:36:25.101Z,99276.26
2022-10-30T14:39:39.589Z,99271.45
2022-10-30T14:42:54.741Z,99265.56
2022-10-30T14:46:03.222Z,99263.48
2022-10-30T14:49:29.814Z,99259.64
2022-10-30T14:52:47.503Z,99256.16
2022-10-30T14:56:03.150Z,99255.63
2022-10-30T14:59:22.344Z,99256.06
2022-10-30T15:02:38.158Z,99249.55
2022-10-30T15:05:51.493Z,99245.69
2022-10-30T15:09:10.791Z,99238.98
2022-10-30T15:12:43.367Z,99237.26
2022-10-30T15:16:01.867Z,99233.20
2022-10-30T15:19:10.237Z,99236.64
2022-10-30T15:22:21.821Z,99239.82
2022-10-30T15:25:33.333Z,99237.05
2022-10-30T15:28:40.272Z,99234.51
2022-10-30T15:31:46.388Z,99235.02
2022-10-30T15:35:03.596Z,99238.53
2022-10-30T15:38:11.495Z,99239.02
2022-10-30T15:41:17.763Z,99240.84
2022-10-30T15:44:27.324Z,99246.67
2022-10-30T15:47:33.850Z,99243.14
2022-10-30T15:50:46.591Z,99245.79
2022-10-30T15:53:56.238Z,99245.73
2022-10-30T15:57:49.314Z,99250.95
2022-10-30T16:00:31.342Z,99250.38
2022-10-30T16:03:37.452Z,99250.22
2022-10-30T16:06:49.673Z,99245.80
2022-10-30T16:10:01.344Z,99247.98
2022-10-30T16:13:07.827Z,99246.26
2022-10-30T16:16:18.647Z,99249.27
2022-10-30T16:19:29.231Z,99247.47
2022-10-30T16:22:40.558Z,99247.08
2022-10-30T16:25:47.848Z,99248.27
2022-10-30T16:28:53.977Z,99246.45
2022-10-30T16:32:01.283Z,99249.09
2022-10-30T16:35:09.282Z,99249.58
2022-10-30T16:38:16.396Z,99251.29
2022-10-30T16:41:26.720Z,99255.07
2022-10-30T16:44:34.886Z,99255.21
2022-10-30T16:47:44.936Z,99254.84
2022-10-30T16:50:52.140Z,99252.92
2022-10-30T16:53:58.871Z,99250.36
2022-10-30T16:57:10.937Z,99250.05
2022-10-30T17:00:27.003Z,99255.54
2022-10-30T17:03:38.378Z,99253.86
2022-10-30T17:06:46.082Z,99257.02
2022-10-30T17:09:54.142Z,99260.44
2022-10-30T17:13:33.902Z,99262.55
2022-10-30T17:16:40.672Z,99264.38
2022-10-30T17:19:56.345Z,99264.62
2022-10-30T17:23:15.880Z,99262.44
2022-10-30T17:26:22.264Z,99265.98
2022-10-30T17:29:49.784Z,99267.38
2022-10-30T17:32:58.096Z,99265.66
2022-10-30T17:36:06.988Z,99264.15
2022-10-30T17:39:13.116Z,99264.10
2022-10-30T17:42:17.648Z,99262.69
2022-10-30T17:45:23.782Z,99265.16
2022-10-30T17:48:28.963Z,99263.02
2022-10-30T17:51:35.109Z,99260.92
2022-10-30T17:54:39.765Z,99262.44
2022-10-30T17:57:46.067Z,99262.32
2022-10-30T18:00:52.228Z,99264.02
2022-10-30T18:03:58.690Z,99268.17
2022-10-30T18:07:04.895Z,99269.27
2022-10-30T18:10:12.251Z,99270.65
2022-10-30T18:13:19.650Z,99272.77
2022-10-30T18:16:26.369Z,99275.73
2022-10-30T18:19:32.593Z,99272.39
2022-10-30T18:22:38.676Z,99271.29
2022-10-30T18:25:43.129Z,99271.33
2022-10-30T18:28:49.611Z,99274.29
2022-10-30T18:31:55.703Z,99275.34
2022-10-30T18:35:00.279Z,99280.30
2022-10-30T18:38:08.317Z,99279.33
2022-10-30T18:41:18.140Z,99282.52
2022-10-30T18:44:24.198Z,99288.29
2022-10-30T18:47:30.346Z,99287.92
2022-10-30T18:50:35.030Z,99287.27
2022-10-30T18:53:41.139Z,99279.77
2022-10-30T18:56:45.814Z,99277.93
2022-10-30T18:59:51.913Z,99279.05
2022-10-30T19:02:56.730Z,99279.40
2022-10-30T19:06:03.018Z,99282.55
2022-10-30T19:09:09.224Z,99283.15
2022-10-30T19:12:15.444Z,99279.54
2022-10-30T19:15:26.159Z,99279.67
2022-10-30T19:18:32.955Z,99275.45
2022-10-30T19:21:39.103Z,99270.51
2022-10-30T19:24:44.047Z,99274.31
2022-10-30T19:27:50.429Z,99277.63
2022-10-30T19:30:56.623Z,99277.31
2022-10-30T19:34:01.128Z,99274.35
2022-10-30T19:37:07.315Z,99273.34
2022-10-30T19:40:26.823Z,99269.25
2022-10-30T19:43:32.994Z,99265.86
2022-10-30T19:46:37.840Z,99268.91
2022-10-30T19:49:44.064Z,99272.41
2022-10-30T19:52:48.611Z,99270.75
2022-10-30T19:55:54.918Z,99267.11
2022-10-30T19:59:01.161Z,99264.35
2022-10-30T20:02:07.601Z,99265.23
2022-10-30T20:05:16.097Z,99262.71
2022-10-30T20:08:24.243Z,99263.89
2022-10-30T20:11:32.013Z,99261.98
2022-10-30T20:14:38.113Z,99262.45
2022-10-30T20:17:42.735Z,99269.39
2022-10-30T20:20:53.859Z,99269.02
2022-10-30T20:24:00.055Z,99271.52
2022-10-30T20:27:04.621Z,99270.73
2022-10-30T20:30:15.662Z,99269.96
2022-10-30T20:33:23.397Z,99273.00
2022-10-30T20:36:29.602Z,99273.95
2022-10-30T20:39:34.104Z,99275.33
2022-10-30T20:42:40.455Z,99275.29
2022-10-30T20:45:46.765Z,99275.23
2022-10-30T20:48:53.057Z,99273.81
2022-10-30T20:51:59.094Z,99278.17
2022-10-30T20:55:05.711Z,99278.36
2022-10-30T20:58:12.054Z,99278.13
2022-10-30T21:01:18.328Z,99280.14
2022-10-30T21:04:24.565Z,99285.78
2022-10-30T21:07:29.068Z,99283.27
2022-10-30T21:10:37.586Z,99284.20
2022-10-30T21:13:43.703Z,99285.85
2022-10-30T21:16:48.247Z,99284.80
2022-10-30T21:19:54.389Z,99282.45
2022-10-30T21:22:58.854Z,99289.12
2022-10-30T21:26:06.545Z,99287.69
2022-10-30T21:29:12.627Z,99282.15
2022-10-30T21:32:19.091Z,99278.35
2022-10-30T21:35:25.438Z,99280.96
2022-10-30T21:38:32.946Z,99275.89
2022-10-30T21:41:39.315Z,99272.50
2022-10-30T21:44:45.406Z,99271.74
2022-10-30T21:47:54.522Z,99272.58
2022-10-30T21:51:08.506Z,99276.34
2022-10-30T21:54:15.795Z,99276.84
2022-10-30T21:57:21.917Z,99273.55
2022-10-30T22:00:28.039Z,99273.68
2022-10-30T22:03:35.049Z,99277.77
2022-10-30T22:06:43.500Z,99276.77
2022-10-30T22:09:49.567Z,99280.95
2022-10-30T22:12:55.653Z,99280.15
2022-10-30T22:16:02.149Z,99279.05
2022-10-30T22:19:09.708Z,99279.64
2022-10-30T22:22:15.821Z,99278.48
2022-10-30T22:25:22.200Z,99282.95
2022-10-30T22:28:29.399Z,99282.98
2022-10-30T22:31:35.522Z,99281.50
2022-10-30T22:34:41.561Z,99281.99
2022-10-30T22:37:47.614Z,99283.30
2022-10-30T22:40:53.637Z,99286.14
2022-10-30T22:44:00.500Z,99286.98
2022-10-30T22:47:06.735Z,99288.75
2022-10-30T22:50:11.379Z,99287.30
2022-10-30T22:53:18.153Z,99289.17
2022-10-30T22:56:26.788Z,99287.06
2022-10-30T22:59:32.930Z,99286.71
2022-10-30T23:02:37.390Z,99284.35
2022-10-30T23:05:43.533Z,99285.68
2022-10-30T23:08:50.538Z,99289.20
2022-10-30T23:11:56.670Z,99291.77
2022-10-30T23:15:02.733Z,99292.88
2022-10-30T23:18:09.133Z,99291.17
2022-10-30T23:21:17.042Z,99291.86
2022-10-30T23:24:23.109Z,99290.45
2022-10-30T23:27:30.328Z,99290.86
2022-10-30T23:30:38.231Z,99296.90
2022-10-30T23:33:44.294Z,99296.83
2022-10-30T23:36:50.399Z,99298.66
2022-10-30T23:39:56.511Z,99293.86
2022-10-30T23:43:03.046Z,99296.23
2022-10-30T23:46:09.554Z,99296.52
2022-10-30T23:49:14.372Z,99294.80
2022-10-30T23:52:20.502Z,99294.96
2022-10-30T23:55:26.506Z,99297.84
2022-10-30T23:58:32.652Z,99297.02
